logo
Rechercher aéroport 
image banner adimage banner adimage banner ad
image banner ad

FAGRAS - Graskop

Situé à , South Africa

ICAO - , IATA -

Données fournies par Airmate  

Information générale

Coordonnées: S24°57'21" E30°51'3"
Élévation : 4853 feet MSL.
 
Voir autres Aéroports à Kwazulu-Natal

Données opérationnelles

Special qualification required
Heure actuelle UTC:
Heure actuelle locale:
METAR: FAKN 152100Z AUTO 08006KT //// // ////// 15/13 Q1025
Voir NOTAMs / SUP AIP / TFR affectant cet aéroport [VIEW]
Fréquences de communication: [VIEW]

Pistes:

Identifiant RWYQFULongueur (ft)Largeur (ft)SurfaceLDA (ft)
01170°246166GRASS
19350°246166GRASS
0631°124766GRASS
24211°124766GRASS
12102°137866GRASS
30282°137866GRASS
15138°267433ASPH
33318°267433ASPH

Coordonnées de l'aéroport

Adresse: South Africa

Vue satellite de FAGRAS